createdAt,value
2019-03-30T00:01:13.834Z,1.70
2019-03-30T00:03:41.693Z,2.00
2019-03-30T00:06:09.458Z,4.47
2019-03-30T00:08:37.233Z,2.00
2019-03-30T00:11:05.043Z,2.43
2019-03-30T00:13:32.830Z,2.03
2019-03-30T00:16:00.642Z,2.07
2019-03-30T00:18:28.441Z,2.90
2019-03-30T00:20:56.239Z,2.00
2019-03-30T00:23:24.013Z,2.80
2019-03-30T00:25:51.826Z,1.80
2019-03-30T00:28:19.609Z,1.80
2019-03-30T00:30:47.402Z,2.40
2019-03-30T00:33:15.261Z,2.03
2019-03-30T00:35:43.190Z,2.70
2019-03-30T00:38:10.990Z,1.80
2019-03-30T00:40:38.792Z,1.80
2019-03-30T00:43:06.562Z,1.73
2019-03-30T00:45:34.393Z,2.03
2019-03-30T00:48:02.152Z,2.60
2019-03-30T00:50:30.078Z,2.70
2019-03-30T00:52:57.890Z,2.60
2019-03-30T00:55:25.664Z,2.73
2019-03-30T00:57:53.457Z,2.83
2019-03-30T01:00:21.235Z,1.87
2019-03-30T01:02:49.041Z,1.60
2019-03-30T01:05:16.874Z,2.00
2019-03-30T01:07:44.660Z,2.50
2019-03-30T01:10:12.443Z,2.03
2019-03-30T01:12:40.259Z,2.50
2019-03-30T01:15:08.369Z,1.73
2019-03-30T01:17:36.134Z,2.37
2019-03-30T01:20:04.201Z,1.97
2019-03-30T01:22:31.983Z,1.93
2019-03-30T01:24:59.790Z,2.10
2019-03-30T01:27:27.607Z,2.47
2019-03-30T01:29:55.370Z,1.93
2019-03-30T01:32:23.224Z,2.70
2019-03-30T01:34:51.023Z,2.63
2019-03-30T01:37:18.789Z,1.90
2019-03-30T01:39:46.608Z,2.87
2019-03-30T01:42:14.377Z,2.20
2019-03-30T01:44:43.478Z,1.87
2019-03-30T01:47:11.251Z,2.13
2019-03-30T01:49:39.027Z,1.73
2019-03-30T01:52:06.853Z,2.30
2019-03-30T01:54:34.746Z,2.10
2019-03-30T01:57:02.512Z,1.80
2019-03-30T01:59:30.303Z,2.30
2019-03-30T02:01:58.066Z,1.73
2019-03-30T02:04:25.847Z,2.23
2019-03-30T02:06:53.646Z,1.93
2019-03-30T02:09:21.393Z,1.73
2019-03-30T02:11:49.207Z,2.20
2019-03-30T02:14:16.982Z,2.13
2019-03-30T02:16:44.787Z,2.77
2019-03-30T02:19:12.557Z,2.00
2019-03-30T02:21:40.461Z,2.30
2019-03-30T02:24:08.390Z,1.93
2019-03-30T02:26:36.136Z,2.63
2019-03-30T02:29:03.918Z,2.23
2019-03-30T02:31:31.844Z,1.93
2019-03-30T02:33:59.654Z,3.23
2019-03-30T02:36:27.402Z,1.90
2019-03-30T02:38:55.215Z,2.43
2019-03-30T02:41:23.005Z,4.13
2019-03-30T02:43:50.775Z,1.90
2019-03-30T02:46:18.584Z,2.50
2019-03-30T02:48:46.367Z,1.80
2019-03-30T02:51:14.199Z,2.00
2019-03-30T02:53:41.986Z,1.80
2019-03-30T02:56:09.912Z,2.10
2019-03-30T02:58:37.702Z,2.00
2019-03-30T03:01:05.479Z,1.70
2019-03-30T03:03:33.274Z,2.17
2019-03-30T03:06:01.066Z,2.03
2019-03-30T03:08:28.861Z,1.90
2019-03-30T03:10:56.660Z,2.70
2019-03-30T03:13:24.427Z,2.13
2019-03-30T03:15:52.237Z,1.90
2019-03-30T03:18:20.023Z,1.60
2019-03-30T03:21:06.116Z,2.33
2019-03-30T03:23:17.572Z,2.23
2019-03-30T03:25:45.337Z,5.07
2019-03-30T03:28:13.132Z,2.03
2019-03-30T03:30:40.961Z,2.10
2019-03-30T03:33:08.761Z,1.60
2019-03-30T03:35:36.530Z,2.20
2019-03-30T03:38:04.366Z,2.33
2019-03-30T03:40:32.146Z,1.50
2019-03-30T03:42:59.935Z,1.60
2019-03-30T03:45:27.787Z,1.90
2019-03-30T03:47:55.559Z,2.07
2019-03-30T03:50:40.837Z,2.00
2019-03-30T03:53:08.674Z,2.10
2019-03-30T03:55:36.772Z,1.77
2019-03-30T03:58:05.154Z,2.10
2019-03-30T04:00:32.936Z,1.83
2019-03-30T04:03:00.871Z,1.70
2019-03-30T04:05:28.641Z,2.37
2019-03-30T04:07:56.425Z,1.73
2019-03-30T04:10:24.230Z,1.70
2019-03-30T04:12:51.992Z,2.00
2019-03-30T04:15:25.956Z,2.07
2019-03-30T04:17:53.753Z,2.33
2019-03-30T04:20:23.210Z,2.23
2019-03-30T04:22:51.306Z,1.53
2019-03-30T04:25:19.074Z,1.90
2019-03-30T04:27:46.877Z,2.43
2019-03-30T04:30:14.651Z,1.63
2019-03-30T04:32:42.484Z,1.63
2019-03-30T04:35:10.274Z,1.63
2019-03-30T04:37:38.087Z,3.07
2019-03-30T04:40:05.968Z,1.73
2019-03-30T04:42:33.761Z,1.60
2019-03-30T04:45:01.556Z,1.57
2019-03-30T04:47:29.334Z,2.00
2019-03-30T04:49:57.139Z,1.53
2019-03-30T04:52:25.246Z,1.50
2019-03-30T04:54:53.052Z,1.90
2019-03-30T04:57:23.586Z,1.80
2019-03-30T04:59:51.385Z,1.97
2019-03-30T05:02:19.165Z,1.57
2019-03-30T05:04:46.944Z,1.77
2019-03-30T05:07:14.747Z,1.43
2019-03-30T05:09:42.535Z,1.30
2019-03-30T05:12:10.331Z,2.07
2019-03-30T05:14:38.090Z,1.70
2019-03-30T05:17:06.043Z,1.80
2019-03-30T05:19:33.828Z,1.60
2019-03-30T05:22:12.151Z,1.30
2019-03-30T05:24:31.294Z,1.70
2019-03-30T05:26:59.066Z,1.67
2019-03-30T05:29:27.015Z,2.10
2019-03-30T05:31:54.781Z,1.80
2019-03-30T05:34:22.527Z,1.80
2019-03-30T05:36:50.433Z,1.77
2019-03-30T05:39:18.195Z,1.43
2019-03-30T05:41:45.969Z,3.03
2019-03-30T05:44:13.792Z,1.60
2019-03-30T05:46:41.594Z,1.60
2019-03-30T05:49:09.441Z,1.73
2019-03-30T05:51:37.275Z,1.70
2019-03-30T05:54:05.060Z,1.77
2019-03-30T05:56:32.940Z,1.73
2019-03-30T05:59:00.705Z,1.70
2019-03-30T06:01:28.525Z,1.40
2019-03-30T06:03:56.299Z,1.87
2019-03-30T06:06:24.067Z,1.60
2019-03-30T06:08:51.861Z,1.60
2019-03-30T06:11:19.630Z,1.40
2019-03-30T06:13:47.476Z,1.83
2019-03-30T06:16:15.238Z,1.60
2019-03-30T06:18:43.014Z,1.80
2019-03-30T06:21:10.822Z,1.60
2019-03-30T06:23:38.583Z,1.50
2019-03-30T06:26:06.434Z,1.70
2019-03-30T06:28:34.296Z,2.07
2019-03-30T06:34:19.454Z,1.50
2019-03-30T06:36:47.496Z,1.90
2019-03-30T06:39:15.582Z,2.83
2019-03-30T06:41:43.638Z,2.30
2019-03-30T06:44:11.685Z,1.60
2019-03-30T06:46:39.844Z,1.40
2019-03-30T06:49:08.007Z,1.53
2019-03-30T06:51:36.019Z,2.03
2019-03-30T06:54:04.119Z,1.53
2019-03-30T06:56:32.190Z,1.53
2019-03-30T06:59:00.284Z,1.63
2019-03-30T07:01:28.333Z,1.77
2019-03-30T07:03:56.377Z,2.60
2019-03-30T07:06:24.462Z,2.27
2019-03-30T07:08:53.727Z,1.63
2019-03-30T07:11:22.179Z,1.60
2019-03-30T07:13:50.365Z,2.20
2019-03-30T07:16:18.382Z,1.87
2019-03-30T07:18:46.278Z,1.47
2019-03-30T07:21:14.476Z,1.67
2019-03-30T07:23:42.527Z,1.80
2019-03-30T07:26:10.575Z,1.47
2019-03-30T07:28:38.663Z,3.33
2019-03-30T07:31:06.739Z,1.90
2019-03-30T07:33:34.816Z,1.60
2019-03-30T07:36:02.880Z,3.00
2019-03-30T07:38:30.922Z,1.97
2019-03-30T07:40:59.103Z,1.77
2019-03-30T07:43:27.162Z,1.90
2019-03-30T07:45:55.200Z,1.93
2019-03-30T07:48:23.349Z,1.70
2019-03-30T07:50:51.373Z,1.60
2019-03-30T07:53:26.281Z,1.50
2019-03-30T07:55:49.403Z,2.27
2019-03-30T07:58:17.505Z,1.60
2019-03-30T08:00:45.552Z,1.50
2019-03-30T08:03:13.595Z,1.57
2019-03-30T08:05:41.692Z,1.50
2019-03-30T08:08:09.773Z,1.83
2019-03-30T08:10:37.839Z,1.83
2019-03-30T08:13:05.900Z,1.80
2019-03-30T08:15:33.986Z,1.77
2019-03-30T08:18:02.028Z,1.40
2019-03-30T08:20:30.096Z,1.80
2019-03-30T08:22:58.142Z,2.13
2019-03-30T08:25:26.194Z,1.40
2019-03-30T08:27:54.252Z,1.40
2019-03-30T08:30:22.309Z,1.70
2019-03-30T08:32:50.400Z,1.93
2019-03-30T08:35:18.440Z,1.57
2019-03-30T08:37:46.501Z,2.00
2019-03-30T08:40:14.590Z,1.50
2019-03-30T08:42:42.649Z,1.77
2019-03-30T08:45:10.833Z,2.00
2019-03-30T08:47:38.888Z,1.73
2019-03-30T08:50:07.737Z,1.43
2019-03-30T08:52:35.826Z,1.70
2019-03-30T08:55:04.284Z,2.17
2019-03-30T08:57:32.315Z,2.50
2019-03-30T09:00:00.392Z,1.77
2019-03-30T09:02:28.537Z,1.97
2019-03-30T09:04:56.589Z,1.60
2019-03-30T09:07:24.612Z,1.70
2019-03-30T09:09:52.722Z,1.90
2019-03-30T09:12:20.742Z,1.30
2019-03-30T09:14:48.758Z,1.97
2019-03-30T09:17:16.831Z,1.57
2019-03-30T09:19:44.870Z,1.40
2019-03-30T09:22:12.959Z,1.70
2019-03-30T09:24:40.983Z,1.73
2019-03-30T09:27:09.263Z,1.77
2019-03-30T09:29:37.321Z,1.40
2019-03-30T09:32:14.284Z,1.70
2019-03-30T09:34:35.362Z,1.80
2019-03-30T09:37:03.376Z,1.77
2019-03-30T09:39:31.438Z,1.50
2019-03-30T09:41:59.532Z,1.43
2019-03-30T09:44:27.564Z,1.70
2019-03-30T09:46:55.620Z,2.10
2019-03-30T09:49:23.697Z,2.40
2019-03-30T09:51:51.813Z,2.73
2019-03-30T09:54:24.085Z,2.13
2019-03-30T09:56:49.781Z,1.77
2019-03-30T09:59:17.897Z,2.10
2019-03-30T10:01:45.954Z,3.50
2019-03-30T10:04:14.011Z,1.90
2019-03-30T10:06:42.101Z,1.50
2019-03-30T10:09:10.260Z,3.37
2019-03-30T10:11:38.397Z,2.20
2019-03-30T10:14:06.452Z,2.70
2019-03-30T10:16:34.628Z,1.60
2019-03-30T10:19:02.676Z,2.37
2019-03-30T10:21:30.723Z,1.63
2019-03-30T10:23:58.804Z,2.20
2019-03-30T10:26:26.849Z,2.67
2019-03-30T10:28:54.921Z,2.90
2019-03-30T10:31:23.114Z,3.33
2019-03-30T10:33:51.136Z,2.43
2019-03-30T10:36:19.188Z,2.47
2019-03-30T10:38:47.265Z,2.30
2019-03-30T10:41:15.294Z,2.20
2019-03-30T10:43:43.369Z,2.10
2019-03-30T10:46:11.433Z,2.33
2019-03-30T10:48:39.536Z,1.50
2019-03-30T10:51:07.607Z,1.63
2019-03-30T10:53:35.932Z,2.47
2019-03-30T10:56:04.034Z,1.73
2019-03-30T10:58:32.151Z,2.00
2019-03-30T11:01:00.235Z,2.13
2019-03-30T11:03:28.302Z,2.77
2019-03-30T11:05:56.476Z,2.70
2019-03-30T11:08:24.593Z,2.23
2019-03-30T11:10:52.608Z,2.00
2019-03-30T11:13:20.735Z,2.83
2019-03-30T11:15:48.747Z,1.50
2019-03-30T11:18:16.931Z,2.17
2019-03-30T11:20:44.944Z,1.77
2019-03-30T11:23:12.966Z,1.80
2019-03-30T11:25:41.033Z,2.43
2019-03-30T11:28:09.049Z,2.10
2019-03-30T11:30:37.107Z,3.10
2019-03-30T11:33:05.134Z,2.17
2019-03-30T11:35:33.197Z,1.90
2019-03-30T11:38:01.207Z,2.00
2019-03-30T11:40:29.265Z,2.10
2019-03-30T11:42:57.271Z,2.97
2019-03-30T11:45:25.330Z,3.90
2019-03-30T11:47:53.339Z,2.93
2019-03-30T11:50:21.373Z,3.27
2019-03-30T11:52:49.408Z,2.07
2019-03-30T11:55:22.001Z,2.90
2019-03-30T11:57:47.393Z,2.10
2019-03-30T12:00:15.495Z,2.83
2019-03-30T12:02:43.567Z,1.80
2019-03-30T12:05:11.613Z,3.07
2019-03-30T12:07:39.672Z,2.37
2019-03-30T12:10:07.751Z,1.77
2019-03-30T12:12:37.556Z,2.50
2019-03-30T12:15:06.024Z,2.50
2019-03-30T12:17:34.079Z,2.87
2019-03-30T12:20:02.115Z,4.93
2019-03-30T12:22:30.160Z,2.93
2019-03-30T12:24:58.172Z,2.70
2019-03-30T12:27:26.344Z,5.20
2019-03-30T12:29:54.398Z,2.97
2019-03-30T12:32:22.431Z,3.47
2019-03-30T12:34:50.486Z,3.27
2019-03-30T12:37:18.639Z,2.63
2019-03-30T12:39:46.664Z,2.73
2019-03-30T12:42:14.686Z,3.67
2019-03-30T12:44:42.749Z,2.93
2019-03-30T12:47:10.910Z,3.00
2019-03-30T12:49:38.933Z,4.80
2019-03-30T12:52:07.047Z,2.70
2019-03-30T12:54:35.075Z,2.00
2019-03-30T12:57:03.092Z,3.53
2019-03-30T12:59:31.134Z,4.17
2019-03-30T13:01:59.155Z,3.63
2019-03-30T13:04:27.211Z,4.13
2019-03-30T13:06:55.232Z,4.07
2019-03-30T13:09:23.285Z,2.47
2019-03-30T13:11:51.301Z,3.50
2019-03-30T13:14:19.356Z,3.73
2019-03-30T13:16:47.397Z,3.20
2019-03-30T13:19:15.421Z,3.90
2019-03-30T13:21:52.507Z,2.23
2019-03-30T13:24:13.546Z,3.33
2019-03-30T13:26:41.557Z,3.63
2019-03-30T13:29:09.577Z,3.13
2019-03-30T13:31:37.622Z,2.67
2019-03-30T13:34:05.629Z,4.40
2019-03-30T13:36:40.812Z,2.33
2019-03-30T13:39:08.884Z,2.47
2019-03-30T13:41:36.943Z,2.50
2019-03-30T13:44:05.049Z,4.17
2019-03-30T13:46:33.098Z,2.80
2019-03-30T13:49:01.237Z,2.93
2019-03-30T13:51:29.290Z,3.87
2019-03-30T13:53:57.295Z,3.63
2019-03-30T13:56:25.350Z,3.10
2019-03-30T13:58:53.369Z,2.90
2019-03-30T14:01:21.495Z,3.63
2019-03-30T14:03:49.539Z,3.30
2019-03-30T14:06:17.588Z,3.00
2019-03-30T14:08:45.815Z,2.03
2019-03-30T14:11:13.978Z,3.17
2019-03-30T14:13:41.984Z,2.00
2019-03-30T14:16:10.070Z,2.57
2019-03-30T14:18:38.133Z,2.87
2019-03-30T14:21:06.185Z,2.10
2019-03-30T14:23:34.276Z,3.20
2019-03-30T14:26:02.271Z,3.43
2019-03-30T14:28:30.447Z,2.60
2019-03-30T14:30:58.456Z,2.50
2019-03-30T14:33:26.470Z,2.93
2019-03-30T14:35:54.519Z,2.30
2019-03-30T14:38:22.548Z,2.30
2019-03-30T14:40:50.598Z,2.70
2019-03-30T14:43:18.622Z,2.37
2019-03-30T14:45:46.667Z,3.10
2019-03-30T14:48:14.712Z,1.90
2019-03-30T14:50:42.760Z,3.03
2019-03-30T14:53:10.908Z,2.30
2019-03-30T14:55:39.678Z,4.67
2019-03-30T14:58:07.955Z,2.63
2019-03-30T15:00:36.187Z,2.00
2019-03-30T15:03:04.292Z,3.13
2019-03-30T15:05:32.300Z,2.20
2019-03-30T15:08:00.374Z,2.10
2019-03-30T15:10:28.389Z,1.80
2019-03-30T15:12:56.475Z,2.10
2019-03-30T15:15:24.586Z,1.70
2019-03-30T15:17:52.603Z,3.70
2019-03-30T15:20:20.646Z,5.17
2019-03-30T15:22:48.717Z,2.53
2019-03-30T15:25:16.759Z,2.20
2019-03-30T15:27:44.809Z,3.23
2019-03-30T15:30:12.857Z,2.53
2019-03-30T15:32:40.879Z,2.33
2019-03-30T15:35:08.951Z,3.07
2019-03-30T15:37:36.980Z,1.80
2019-03-30T15:40:05.128Z,4.47
2019-03-30T15:42:33.148Z,3.23
2019-03-30T15:45:01.301Z,2.83
2019-03-30T15:47:29.341Z,4.17
2019-03-30T15:49:57.378Z,6.00
2019-03-30T15:52:25.486Z,3.10
2019-03-30T15:54:53.541Z,3.70
2019-03-30T15:57:21.553Z,4.13
2019-03-30T15:59:49.618Z,5.00
2019-03-30T16:02:17.630Z,3.90
2019-03-30T16:04:45.728Z,3.30
2019-03-30T16:07:13.771Z,2.60
2019-03-30T16:09:41.800Z,2.90
2019-03-30T16:12:09.881Z,3.13
2019-03-30T16:14:37.896Z,2.80
2019-03-30T16:17:05.953Z,3.73
2019-03-30T16:19:34.057Z,3.20
2019-03-30T16:22:02.143Z,3.47
2019-03-30T16:24:30.367Z,3.30
2019-03-30T16:26:58.462Z,4.57
2019-03-30T16:29:26.534Z,5.07
2019-03-30T16:31:54.577Z,3.27
2019-03-30T16:34:22.647Z,3.13
2019-03-30T16:36:50.732Z,3.57
2019-03-30T16:39:18.808Z,4.07
2019-03-30T16:41:46.875Z,3.77
2019-03-30T16:44:14.934Z,3.40
2019-03-30T16:46:43.030Z,3.93
2019-03-30T16:49:11.108Z,5.13
2019-03-30T16:51:39.180Z,3.30
2019-03-30T16:54:07.304Z,5.33
2019-03-30T16:56:35.445Z,4.87
2019-03-30T16:59:03.948Z,3.70
2019-03-30T17:01:31.974Z,6.07
2019-03-30T17:04:00.066Z,4.93
2019-03-30T17:06:28.090Z,6.30
2019-03-30T17:08:56.123Z,4.40
2019-03-30T17:11:24.190Z,4.00
2019-03-30T17:13:52.403Z,6.00
2019-03-30T17:16:20.421Z,5.33
2019-03-30T17:18:48.446Z,7.67
2019-03-30T17:21:16.489Z,4.87
2019-03-30T17:23:44.591Z,3.90
2019-03-30T17:26:12.623Z,6.13
2019-03-30T17:28:40.684Z,5.90
2019-03-30T17:31:08.739Z,4.20
2019-03-30T17:33:36.800Z,4.80
2019-03-30T17:36:04.838Z,9.83
2019-03-30T17:38:33.072Z,3.67
2019-03-30T17:41:01.195Z,4.10
2019-03-30T17:43:29.226Z,4.30
2019-03-30T17:45:57.278Z,3.90
2019-03-30T17:48:25.345Z,4.13
2019-03-30T17:50:53.406Z,2.80
2019-03-30T17:53:21.483Z,3.30
2019-03-30T17:55:49.535Z,6.70
2019-03-30T17:58:17.697Z,4.20
2019-03-30T18:00:46.842Z,6.20
2019-03-30T18:03:14.871Z,4.03
2019-03-30T18:05:42.928Z,2.60
2019-03-30T18:08:10.968Z,5.63
2019-03-30T18:10:39.008Z,4.50
2019-03-30T18:13:07.070Z,7.53
2019-03-30T18:15:35.126Z,4.07
2019-03-30T18:18:03.191Z,3.33
2019-03-30T18:20:31.258Z,2.40
2019-03-30T18:22:59.298Z,3.50
2019-03-30T18:25:27.363Z,5.50
2019-03-30T18:27:55.608Z,4.30
2019-03-30T18:30:34.350Z,3.70
2019-03-30T18:33:02.473Z,4.53
2019-03-30T18:35:30.607Z,3.10
2019-03-30T18:37:58.628Z,3.20
2019-03-30T18:40:28.737Z,3.30
2019-03-30T18:42:56.806Z,5.23
2019-03-30T18:45:26.160Z,3.77
2019-03-30T18:47:54.977Z,5.40
2019-03-30T18:50:23.069Z,11.67
2019-03-30T18:52:51.100Z,6.03
2019-03-30T18:55:23.094Z,6.13
2019-03-30T18:57:51.164Z,4.20
2019-03-30T19:00:25.724Z,3.33
2019-03-30T19:02:53.754Z,5.43
2019-03-30T19:05:21.854Z,3.60
2019-03-30T19:07:49.868Z,5.50
2019-03-30T19:10:17.914Z,4.73
2019-03-30T19:12:46.014Z,4.90
2019-03-30T19:15:14.041Z,4.20
2019-03-30T19:17:42.102Z,5.10
2019-03-30T19:20:10.177Z,3.90
2019-03-30T19:22:38.252Z,4.00
2019-03-30T19:25:06.409Z,4.93
2019-03-30T19:27:34.475Z,3.20
2019-03-30T19:30:02.510Z,4.73
2019-03-30T19:32:30.590Z,3.90
2019-03-30T19:34:58.664Z,4.03
2019-03-30T19:37:26.740Z,3.80
2019-03-30T19:39:54.820Z,3.37
2019-03-30T19:42:22.891Z,4.47
2019-03-30T19:44:50.937Z,3.33
2019-03-30T19:47:18.968Z,3.93
2019-03-30T19:49:47.025Z,4.90
2019-03-30T19:52:15.081Z,3.00
2019-03-30T19:54:43.134Z,3.53
2019-03-30T19:57:11.171Z,5.97
2019-03-30T19:59:39.302Z,3.83
2019-03-30T20:02:07.302Z,4.00
2019-03-30T20:04:35.345Z,4.40
2019-03-30T20:07:03.431Z,2.70
2019-03-30T20:09:31.592Z,3.43
2019-03-30T20:11:59.658Z,3.37
2019-03-30T20:14:27.688Z,2.67
2019-03-30T20:16:55.772Z,3.70
2019-03-30T20:19:23.801Z,4.30
2019-03-30T20:21:51.892Z,5.10
2019-03-30T20:24:19.901Z,2.83
2019-03-30T20:26:47.991Z,2.77
2019-03-30T20:29:25.293Z,2.60
2019-03-30T20:31:45.959Z,3.13
2019-03-30T20:34:14.024Z,3.50
2019-03-30T20:36:42.265Z,2.83
2019-03-30T20:39:10.283Z,3.37
2019-03-30T20:41:38.343Z,2.70
2019-03-30T20:44:06.880Z,2.87
2019-03-30T20:46:34.917Z,2.93
2019-03-30T20:49:02.981Z,2.67
2019-03-30T20:51:31.035Z,2.80
2019-03-30T20:53:59.095Z,3.20
2019-03-30T20:56:27.151Z,3.70
2019-03-30T20:58:55.209Z,4.60
2019-03-30T21:01:23.222Z,3.03
2019-03-30T21:03:51.291Z,3.53
2019-03-30T21:06:19.335Z,3.80
2019-03-30T21:08:47.357Z,5.27
2019-03-30T21:11:15.414Z,3.43
2019-03-30T21:13:43.443Z,3.27
2019-03-30T21:16:11.490Z,2.77
2019-03-30T21:18:39.524Z,4.17
2019-03-30T21:21:09.305Z,4.17
2019-03-30T21:23:37.505Z,3.33
2019-03-30T21:26:05.678Z,3.63
2019-03-30T21:28:33.685Z,4.30
2019-03-30T21:31:01.795Z,4.60
2019-03-30T21:33:29.852Z,3.20
2019-03-30T21:35:57.891Z,3.07
2019-03-30T21:38:25.945Z,3.70
2019-03-30T21:40:54.099Z,2.80
2019-03-30T21:43:22.219Z,3.10
2019-03-30T21:45:50.235Z,3.60
2019-03-30T21:48:18.288Z,3.10
2019-03-30T21:50:46.344Z,3.27
2019-03-30T21:53:14.432Z,2.80
2019-03-30T21:55:42.485Z,2.60
2019-03-30T21:58:10.536Z,2.97
2019-03-30T22:00:39.010Z,2.90
2019-03-30T22:03:07.132Z,5.10
2019-03-30T22:05:35.317Z,3.97
2019-03-30T22:08:03.945Z,4.20
2019-03-30T22:10:31.998Z,2.83
2019-03-30T22:13:00.027Z,3.00
2019-03-30T22:15:28.286Z,3.77
2019-03-30T22:17:56.332Z,3.80
2019-03-30T22:20:24.379Z,3.97
2019-03-30T22:22:52.445Z,3.60
2019-03-30T22:25:20.517Z,4.90
2019-03-30T22:27:48.564Z,3.10
2019-03-30T22:30:24.523Z,4.30
2019-03-30T22:32:46.549Z,3.80
2019-03-30T22:35:14.559Z,3.50
2019-03-30T22:37:42.616Z,3.90
2019-03-30T22:40:10.720Z,3.80
2019-03-30T22:42:38.834Z,2.83
2019-03-30T22:45:06.841Z,3.27
2019-03-30T22:47:34.905Z,2.80
2019-03-30T22:50:02.956Z,3.20
2019-03-30T22:52:31.070Z,4.40
2019-03-30T22:54:59.091Z,3.10
2019-03-30T22:57:27.161Z,3.40
2019-03-30T22:59:55.206Z,3.87
2019-03-30T23:02:23.241Z,2.70
2019-03-30T23:04:51.292Z,2.87
2019-03-30T23:07:19.324Z,6.00
2019-03-30T23:09:47.507Z,3.50
2019-03-30T23:12:15.517Z,7.00
2019-03-30T23:14:43.577Z,2.77
2019-03-30T23:17:11.591Z,3.13
2019-03-30T23:19:39.665Z,2.60
2019-03-30T23:22:07.702Z,3.33
2019-03-30T23:24:35.863Z,2.40
2019-03-30T23:27:03.908Z,3.47
2019-03-30T23:29:31.969Z,2.63
2019-03-30T23:32:00.043Z,2.07
2019-03-30T23:34:28.077Z,2.30
2019-03-30T23:36:56.140Z,2.77
2019-03-30T23:39:24.200Z,3.20
2019-03-30T23:41:52.291Z,3.83
2019-03-30T23:44:20.322Z,2.43
2019-03-30T23:46:48.405Z,3.27
2019-03-30T23:49:16.442Z,3.33
2019-03-30T23:51:44.540Z,3.40
2019-03-30T23:54:13.918Z,3.80
2019-03-30T23:56:41.986Z,2.80
2019-03-30T23:59:10.014Z,3.70
